createdAt,value
2018-08-19T00:01:32.048Z,97209.92
2018-08-19T00:04:00.915Z,97214.16
2018-08-19T00:06:29.776Z,97209.50
2018-08-19T00:09:02.664Z,97208.02
2018-08-19T00:11:31.463Z,97210.15
2018-08-19T00:14:00.292Z,97205.69
2018-08-19T00:16:29.160Z,97206.55
2018-08-19T00:18:57.913Z,97205.08
2018-08-19T00:21:26.761Z,97207.03
2018-08-19T00:23:55.544Z,97209.33
2018-08-19T00:26:24.405Z,97205.83
2018-08-19T00:28:53.192Z,97208.48
2018-08-19T00:31:21.972Z,97212.75
2018-08-19T00:33:50.772Z,97203.11
2018-08-19T00:36:28.732Z,97207.02
2018-08-19T00:38:57.645Z,97215.16
2018-08-19T00:41:26.785Z,97209.25
2018-08-19T00:43:55.623Z,97208.11
2018-08-19T00:46:29.580Z,97205.13
2018-08-19T00:48:59.190Z,97203.09
2018-08-19T00:51:28.182Z,97198.00
2018-08-19T00:53:57.385Z,97202.35
2018-08-19T00:56:26.188Z,97202.75
2018-08-19T00:58:54.961Z,97200.79
2018-08-19T01:01:32.789Z,97199.89
2018-08-19T01:04:01.732Z,97204.31
2018-08-19T01:06:33.713Z,97210.03
2018-08-19T01:09:02.549Z,97210.91
2018-08-19T01:11:34.363Z,97210.39
2018-08-19T01:14:06.352Z,97212.98
2018-08-19T01:16:35.157Z,97212.20
2018-08-19T01:19:03.961Z,97213.47
2018-08-19T01:21:33.609Z,97211.22
2018-08-19T01:24:05.072Z,97215.20
2018-08-19T01:26:36.293Z,97219.10
2018-08-19T01:29:06.136Z,97213.91
2018-08-19T01:31:34.984Z,97218.11
2018-08-19T01:34:13.886Z,97212.44
2018-08-19T01:36:42.772Z,97213.73
2018-08-19T01:39:12.872Z,97216.38
2018-08-19T01:41:42.395Z,97208.58
2018-08-19T01:44:14.636Z,97211.41
2018-08-19T01:46:48.377Z,97211.69
2018-08-19T01:49:17.125Z,97210.58
2018-08-19T01:51:46.196Z,97199.41
2018-08-19T01:54:20.749Z,97197.91
2018-08-19T01:56:52.680Z,97196.41
2018-08-19T01:59:21.620Z,97194.91
2018-08-19T02:01:57.265Z,97202.47
2018-08-19T02:04:26.057Z,97203.50
2018-08-19T02:06:54.931Z,97212.16
2018-08-19T02:09:23.932Z,97204.70
2018-08-19T02:11:58.578Z,97207.09
2018-08-19T02:14:27.594Z,97205.84
2018-08-19T02:16:57.120Z,97198.03
2018-08-19T02:19:25.869Z,97201.18
2018-08-19T02:21:54.785Z,97203.54
2018-08-19T02:24:23.574Z,97203.54
2018-08-19T02:26:52.360Z,97207.68
2018-08-19T02:29:34.404Z,97200.53
2018-08-19T02:32:04.896Z,97203.17
2018-08-19T02:34:37.976Z,97204.19
2018-08-19T02:37:11.504Z,97198.65
2018-08-19T02:39:43.332Z,97196.97
2018-08-19T02:42:22.149Z,97203.34
2018-08-19T02:44:52.517Z,97201.31
2018-08-19T02:47:21.375Z,97201.66
2018-08-19T02:49:50.119Z,97200.35
2018-08-19T02:52:24.032Z,97198.88
2018-08-19T02:54:52.771Z,97194.83
2018-08-19T02:57:21.553Z,97196.41
2018-08-19T02:59:50.331Z,97192.57
2018-08-19T03:02:28.908Z,97199.64
2018-08-19T03:04:58.456Z,97197.89
2018-08-19T03:07:29.321Z,97193.88
2018-08-19T03:10:02.357Z,97193.18
2018-08-19T03:12:31.198Z,97199.52
2018-08-19T03:14:59.944Z,97195.51
2018-08-19T03:17:29.704Z,97194.48
2018-08-19T03:19:59.403Z,97191.61
2018-08-19T03:22:28.789Z,97193.75
2018-08-19T03:24:59.389Z,97193.84
2018-08-19T03:27:28.177Z,97191.03
2018-08-19T03:29:58.326Z,97189.05
2018-08-19T03:32:27.176Z,97184.09
2018-08-19T03:35:07.866Z,97183.15
2018-08-19T03:37:37.600Z,97189.16
2018-08-19T03:40:06.911Z,97186.56
2018-08-19T03:42:35.666Z,97185.02
2018-08-19T03:45:22.336Z,97183.00
2018-08-19T03:47:52.296Z,97185.62
2018-08-19T03:50:27.161Z,97181.97
2018-08-19T03:52:56.844Z,97181.73
2018-08-19T03:55:32.578Z,97180.31
2018-08-19T03:58:08.864Z,97179.59
2018-08-19T04:00:42.255Z,97178.41
2018-08-19T04:03:18.259Z,97181.03
2018-08-19T04:05:52.381Z,97181.03
2018-08-19T04:08:21.150Z,97188.00
2018-08-19T04:10:50.229Z,97193.31
2018-08-19T04:13:37.769Z,97187.63
2018-08-19T04:16:07.848Z,97180.90
2018-08-19T04:18:37.800Z,97188.14
2018-08-19T04:21:09.564Z,97185.58
2018-08-19T04:23:40.470Z,97189.23
2018-08-19T04:26:09.227Z,97184.28
2018-08-19T04:28:43.149Z,97195.42
2018-08-19T04:31:17.104Z,97190.26
2018-08-19T04:33:48.156Z,97186.17
2018-08-19T04:36:19.055Z,97186.93
2018-08-19T04:38:48.629Z,97185.63
2018-08-19T04:41:17.553Z,97185.52
2018-08-19T04:43:47.168Z,97189.58
2018-08-19T04:46:15.916Z,97188.34
2018-08-19T04:48:48.528Z,97189.55
2018-08-19T04:51:17.308Z,97191.06
2018-08-19T04:53:46.163Z,97191.30
2018-08-19T04:56:14.932Z,97187.84
2018-08-19T04:58:43.690Z,97201.00
2018-08-19T05:01:13.436Z,97203.33
2018-08-19T05:03:44.517Z,97202.24
2018-08-19T05:06:13.301Z,97208.59
2018-08-19T05:08:42.119Z,97208.10
2018-08-19T05:11:10.956Z,97212.48
2018-08-19T05:13:39.690Z,97214.75
2018-08-19T05:16:08.508Z,97225.41
2018-08-19T05:18:37.283Z,97222.27
2018-08-19T05:21:11.332Z,97217.94
2018-08-19T05:23:40.076Z,97220.23
2018-08-19T05:26:08.996Z,97215.24
2018-08-19T05:28:37.732Z,97221.81
2018-08-19T05:31:06.612Z,97218.63
2018-08-19T05:33:35.373Z,97221.23
2018-08-19T05:36:04.211Z,97222.16
2018-08-19T05:38:33.590Z,97217.29
2018-08-19T05:41:02.912Z,97219.61
2018-08-19T05:43:31.909Z,97224.06
2018-08-19T05:46:07.080Z,97222.73
2018-08-19T05:48:35.890Z,97221.27
2018-08-19T05:51:04.688Z,97220.17
2018-08-19T05:53:34.551Z,97225.02
2018-08-19T05:56:03.335Z,97220.69
2018-08-19T05:58:32.124Z,97227.04
2018-08-19T06:01:01.617Z,97227.31
2018-08-19T06:03:30.606Z,97231.67
2018-08-19T06:05:59.720Z,97225.26
2018-08-19T06:08:34.823Z,97230.95
2018-08-19T06:11:03.612Z,97230.88
2018-08-19T06:13:32.363Z,97227.94
2018-08-19T06:16:01.208Z,97232.27
2018-08-19T06:18:30.063Z,97237.11
2018-08-19T06:20:58.836Z,97235.98
2018-08-19T06:23:27.593Z,97238.05
2018-08-19T06:25:56.317Z,97232.17
2018-08-19T06:28:25.103Z,97233.15
2018-08-19T06:30:53.858Z,97238.65
2018-08-19T06:33:22.648Z,97236.93
2018-08-19T06:35:51.400Z,97235.91
2018-08-19T06:38:20.156Z,97241.70
2018-08-19T06:40:49.256Z,97231.97
2018-08-19T06:43:18.086Z,97234.67
2018-08-19T06:45:46.771Z,97232.13
2018-08-19T06:48:15.601Z,97235.27
2018-08-19T06:50:44.371Z,97232.69
2018-08-19T06:53:18.413Z,97233.48
2018-08-19T06:55:47.290Z,97228.52
2018-08-19T06:58:16.109Z,97229.27
2018-08-19T07:00:46.133Z,97229.42
2018-08-19T07:03:14.956Z,97225.70
2018-08-19T07:05:44.009Z,97228.11
2018-08-19T07:08:12.856Z,97232.23
2018-08-19T07:10:42.177Z,97229.89
2018-08-19T07:13:12.660Z,97234.74
2018-08-19T07:15:43.257Z,97238.75
2018-08-19T07:18:14.017Z,97241.59
2018-08-19T07:20:43.615Z,97242.75
2018-08-19T07:23:13.018Z,97239.97
2018-08-19T07:25:44.160Z,97246.25
2018-08-19T07:28:14.366Z,97242.00
2018-08-19T07:30:43.613Z,97244.25
2018-08-19T07:33:13.066Z,97246.49
2018-08-19T07:35:42.226Z,97245.70
2018-08-19T07:38:11.472Z,97246.75
2018-08-19T07:40:40.492Z,97247.08
2018-08-19T07:43:09.907Z,97248.59
2018-08-19T07:45:38.660Z,97248.30
2018-08-19T07:48:08.036Z,97241.64
2018-08-19T07:50:37.658Z,97247.55
2018-08-19T07:53:06.489Z,97249.77
2018-08-19T07:55:35.434Z,97253.14
2018-08-19T07:58:06.401Z,97242.16
2018-08-19T08:00:39.142Z,97246.64
2018-08-19T08:03:08.076Z,97250.67
2018-08-19T08:05:42.129Z,97248.86
2018-08-19T08:08:11.100Z,97256.56
2018-08-19T08:10:40.177Z,97252.03
2018-08-19T08:13:10.183Z,97255.33
2018-08-19T08:15:45.025Z,97250.42
2018-08-19T08:18:14.539Z,97255.78
2018-08-19T08:20:43.304Z,97260.43
2018-08-19T08:23:21.115Z,97254.73
2018-08-19T08:25:50.105Z,97261.90
2018-08-19T08:28:18.948Z,97258.78
2018-08-19T08:30:47.748Z,97254.88
2018-08-19T08:33:16.556Z,97259.75
2018-08-19T08:35:52.239Z,97254.94
2018-08-19T08:38:21.197Z,97259.86
2018-08-19T08:40:50.126Z,97256.25
2018-08-19T08:43:19.020Z,97255.03
2018-08-19T08:45:47.834Z,97254.84
2018-08-19T08:48:16.635Z,97249.97
2018-08-19T08:50:45.393Z,97247.20
2018-08-19T08:53:14.206Z,97243.88
2018-08-19T08:55:42.985Z,97248.39
2018-08-19T08:58:11.755Z,97244.95
2018-08-19T09:00:40.648Z,97247.27
2018-08-19T09:03:09.485Z,97243.50
2018-08-19T09:05:38.269Z,97241.13
2018-08-19T09:08:07.044Z,97236.67
2018-08-19T09:10:35.831Z,97236.38
2018-08-19T09:13:04.636Z,97231.41
2018-08-19T09:15:33.439Z,97228.85
2018-08-19T09:18:02.313Z,97228.73
2018-08-19T09:20:31.089Z,97228.52
2018-08-19T09:22:59.944Z,97225.77
2018-08-19T09:25:28.748Z,97216.88
2018-08-19T09:27:57.562Z,97212.88
2018-08-19T09:30:36.083Z,97207.81
2018-08-19T09:33:05.051Z,97213.38
2018-08-19T09:35:35.855Z,97209.36
2018-08-19T09:38:10.823Z,97209.82
2018-08-19T09:40:39.736Z,97205.67
2018-08-19T09:43:09.273Z,97202.90
2018-08-19T09:45:38.244Z,97199.91
2018-08-19T09:48:07.769Z,97202.91
2018-08-19T09:50:37.369Z,97194.03
2018-08-19T09:53:06.185Z,97198.20
2018-08-19T09:55:41.440Z,97190.16
2018-08-19T09:58:14.984Z,97191.72
2018-08-19T10:00:49.085Z,97194.30
2018-08-19T10:03:18.095Z,97196.29
2018-08-19T10:05:46.940Z,97185.27
2018-08-19T10:08:15.753Z,97184.93
2018-08-19T10:10:44.545Z,97196.30
2018-08-19T10:13:15.784Z,97192.84
2018-08-19T10:15:44.670Z,97186.55
2018-08-19T10:18:13.432Z,97180.48
2018-08-19T10:20:42.240Z,97181.89
2018-08-19T10:23:11.017Z,97181.78
2018-08-19T10:25:39.779Z,97174.91
2018-08-19T10:28:08.623Z,97172.38
2018-08-19T10:30:44.512Z,97176.78
2018-08-19T10:33:13.476Z,97171.80
2018-08-19T10:35:42.267Z,97170.63
2018-08-19T10:38:11.084Z,97166.20
2018-08-19T10:40:39.859Z,97167.63
2018-08-19T10:43:09.856Z,97163.05
2018-08-19T10:45:41.744Z,97158.59
2018-08-19T10:48:13.528Z,97159.88
2018-08-19T10:50:42.329Z,97157.23
2018-08-19T10:53:17.031Z,97153.77
2018-08-19T10:55:46.935Z,97145.65
2018-08-19T10:58:15.781Z,97145.22
2018-08-19T11:00:44.553Z,97141.08
2018-08-19T11:03:20.090Z,97139.72
2018-08-19T11:05:51.595Z,97142.89
2018-08-19T11:08:20.357Z,97129.47
2018-08-19T11:10:49.236Z,97134.28
2018-08-19T11:13:23.467Z,97131.25
2018-08-19T11:15:54.324Z,97125.36
2018-08-19T11:18:36.756Z,97131.44
2018-08-19T11:21:09.083Z,97128.90
2018-08-19T11:23:38.916Z,97122.84
2018-08-19T11:26:08.356Z,97119.39
2018-08-19T11:28:40.164Z,97122.41
2018-08-19T11:31:16.137Z,97119.68
2018-08-19T11:33:45.011Z,97112.23
2018-08-19T11:36:13.788Z,97110.92
2018-08-19T11:38:43.295Z,97102.19
2018-08-19T11:41:12.641Z,97106.75
2018-08-19T11:43:44.778Z,97104.31
2018-08-19T11:46:13.756Z,97106.31
2018-08-19T11:48:43.005Z,97110.45
2018-08-19T11:51:11.972Z,97095.66
2018-08-19T11:53:40.773Z,97093.77
2018-08-19T11:56:09.577Z,97090.30
2018-08-19T11:58:45.469Z,97094.19
2018-08-19T12:01:15.976Z,97099.52
2018-08-19T12:03:56.988Z,97099.53
2018-08-19T12:06:27.220Z,97095.22
2018-08-19T12:08:57.240Z,97091.78
2018-08-19T12:11:30.664Z,97085.77
2018-08-19T12:14:00.792Z,97083.67
2018-08-19T12:16:29.540Z,97080.83
2018-08-19T12:19:05.591Z,97076.95
2018-08-19T12:21:38.478Z,97078.79
2018-08-19T12:24:17.070Z,97072.13
2018-08-19T12:26:45.836Z,97078.50
2018-08-19T12:29:14.584Z,97073.19
2018-08-19T12:31:43.328Z,97072.30
2018-08-19T12:34:12.127Z,97056.09
2018-08-19T12:36:40.884Z,97072.00
2018-08-19T12:39:10.425Z,97060.09
2018-08-19T12:41:45.192Z,97059.77
2018-08-19T12:44:14.004Z,97056.11
2018-08-19T12:46:52.640Z,97060.11
2018-08-19T12:49:21.448Z,97054.05
2018-08-19T12:51:50.202Z,97057.80
2018-08-19T12:54:18.965Z,97047.49
2018-08-19T12:56:48.356Z,97047.81
2018-08-19T12:59:17.140Z,97051.15
2018-08-19T13:01:45.980Z,97049.02
2018-08-19T13:04:14.962Z,97046.50
2018-08-19T13:07:16.354Z,97041.27
2018-08-19T13:09:51.160Z,97035.52
2018-08-19T13:12:20.479Z,97041.69
2018-08-19T13:14:49.659Z,97033.28
2018-08-19T13:17:18.473Z,97039.80
2018-08-19T13:19:53.264Z,97030.03
2018-08-19T13:22:22.047Z,97028.33
2018-08-19T13:24:50.849Z,97021.33
2018-08-19T13:27:19.636Z,97023.71
2018-08-19T13:29:48.547Z,97018.53
2018-08-19T13:32:17.509Z,97020.56
2018-08-19T13:34:46.273Z,97017.16
2018-08-19T13:37:15.112Z,97012.02
2018-08-19T13:39:43.954Z,97010.00
2018-08-19T13:42:12.820Z,97004.86
2018-08-19T13:44:41.608Z,97011.91
2018-08-19T13:47:10.399Z,97011.37
2018-08-19T13:49:39.316Z,96999.17
2018-08-19T13:52:08.136Z,96997.99
2018-08-19T13:54:49.496Z,96993.52
2018-08-19T13:57:18.263Z,96983.70
2018-08-19T13:59:47.133Z,96980.42
2018-08-19T14:02:15.917Z,96982.06
2018-08-19T14:04:44.716Z,96980.03
2018-08-19T14:07:13.544Z,96974.88
2018-08-19T14:09:42.381Z,96976.39
2018-08-19T14:12:11.245Z,96973.63
2018-08-19T14:14:40.049Z,96974.16
2018-08-19T14:17:08.829Z,96968.45
2018-08-19T14:19:37.656Z,96965.91
2018-08-19T14:22:06.530Z,96964.26
2018-08-19T14:24:35.350Z,96971.61
2018-08-19T14:27:04.328Z,96972.73
2018-08-19T14:29:33.139Z,96964.70
2018-08-19T14:32:02.013Z,96963.62
2018-08-19T14:34:30.867Z,96962.81
2018-08-19T14:36:59.689Z,96969.23
2018-08-19T14:39:28.540Z,96962.48
2018-08-19T14:41:57.328Z,96960.44
2018-08-19T14:44:26.073Z,96960.17
2018-08-19T14:46:54.910Z,96955.95
2018-08-19T14:49:23.725Z,96947.59
2018-08-19T14:51:58.246Z,96948.12
2018-08-19T14:54:27.140Z,96945.92
2018-08-19T14:56:56.041Z,96951.53
2018-08-19T14:59:24.887Z,96946.80
2018-08-19T15:02:03.758Z,96943.88
2018-08-19T15:04:32.615Z,96937.46
2018-08-19T15:07:01.721Z,96935.08
2018-08-19T15:09:31.698Z,96932.62
2018-08-19T15:12:15.388Z,96930.02
2018-08-19T15:14:44.427Z,96925.02
2018-08-19T15:17:14.088Z,96933.14
2018-08-19T15:19:46.397Z,96929.92
2018-08-19T15:22:15.649Z,96925.67
2018-08-19T15:24:44.774Z,96927.09
2018-08-19T15:27:13.674Z,96929.58
2018-08-19T15:29:45.183Z,96927.70
2018-08-19T15:32:14.318Z,96917.95
2018-08-19T15:34:42.968Z,96918.08
2018-08-19T15:37:11.781Z,96917.41
2018-08-19T15:39:40.876Z,96917.25
2018-08-19T15:42:09.700Z,96915.23
2018-08-19T15:44:38.573Z,96919.32
2018-08-19T15:47:07.528Z,96912.83
2018-08-19T15:49:36.334Z,96917.07
2018-08-19T15:52:05.144Z,96915.41
2018-08-19T15:54:33.986Z,96911.73
2018-08-19T15:57:04.138Z,96907.67
2018-08-19T15:59:35.952Z,96908.20
2018-08-19T16:02:04.918Z,96907.56
2018-08-19T16:04:33.848Z,96903.59
2018-08-19T16:07:02.796Z,96904.92
2018-08-19T16:09:31.984Z,96901.27
2018-08-19T16:12:00.785Z,96904.86
2018-08-19T16:14:31.536Z,96900.86
2018-08-19T16:17:01.713Z,96905.20
2018-08-19T16:19:30.574Z,96902.01
2018-08-19T16:22:00.213Z,96909.16
2018-08-19T16:24:29.467Z,96906.14
2018-08-19T16:26:58.344Z,96903.84
2018-08-19T16:29:27.089Z,96900.41
2018-08-19T16:31:55.898Z,96897.95
2018-08-19T16:34:24.694Z,96900.20
2018-08-19T16:36:53.497Z,96896.05
2018-08-19T16:39:22.392Z,96902.57
2018-08-19T16:41:51.275Z,96893.83
2018-08-19T16:44:20.116Z,96899.11
2018-08-19T16:46:48.959Z,96894.72
2018-08-19T16:49:18.300Z,96899.13
2018-08-19T16:51:47.256Z,96898.75
2018-08-19T16:54:16.641Z,96902.73
2018-08-19T16:56:45.767Z,96898.87
2018-08-19T16:59:14.607Z,96897.02
2018-08-19T17:01:43.528Z,96899.30
2018-08-19T17:04:12.356Z,96893.42
2018-08-19T17:06:41.135Z,96896.21
2018-08-19T17:09:10.272Z,96895.34
2018-08-19T17:11:39.114Z,96902.44
2018-08-19T17:14:08.024Z,96898.25
2018-08-19T17:16:36.879Z,96901.72
2018-08-19T17:19:05.662Z,96900.80
2018-08-19T17:21:34.501Z,96900.20
2018-08-19T17:24:03.437Z,96900.78
2018-08-19T17:26:32.360Z,96906.69
2018-08-19T17:29:20.048Z,96905.79
2018-08-19T17:31:48.859Z,96899.83
2018-08-19T17:34:19.648Z,96897.48
2018-08-19T17:36:48.610Z,96901.83
2018-08-19T17:39:21.104Z,96902.97
2018-08-19T17:41:50.820Z,96901.89
2018-08-19T17:44:19.935Z,96898.86
2018-08-19T17:46:48.910Z,96901.70
2018-08-19T17:49:22.880Z,96900.91
2018-08-19T17:51:51.960Z,96903.98
2018-08-19T17:54:25.996Z,96901.88
2018-08-19T17:56:55.549Z,96903.77
2018-08-19T17:59:24.861Z,96910.80
2018-08-19T18:01:53.536Z,96909.42
2018-08-19T18:04:22.703Z,96907.47
2018-08-19T18:06:51.579Z,96915.83
2018-08-19T18:09:20.371Z,96914.36
2018-08-19T18:11:56.855Z,96916.13
2018-08-19T18:14:25.654Z,96911.55
2018-08-19T18:16:54.418Z,96920.70
2018-08-19T18:19:23.248Z,96920.86
2018-08-19T18:21:52.025Z,96919.58
2018-08-19T18:24:20.807Z,96919.64
2018-08-19T18:26:49.704Z,96919.45
2018-08-19T18:29:18.655Z,96920.69
2018-08-19T18:31:50.252Z,96923.47
2018-08-19T18:34:19.155Z,96926.50
2018-08-19T18:37:22.929Z,96932.95
2018-08-19T18:39:52.346Z,96924.86
2018-08-19T18:42:34.464Z,96929.91
2018-08-19T18:45:07.592Z,96924.76
2018-08-19T18:47:38.547Z,96926.84
2018-08-19T18:50:13.757Z,96929.95
2018-08-19T18:52:46.724Z,96938.30
2018-08-19T18:55:15.628Z,96935.22
2018-08-19T18:57:51.684Z,96935.02
2018-08-19T19:00:22.474Z,96936.79
2018-08-19T19:02:55.384Z,96936.86
2018-08-19T19:05:33.664Z,96936.81
2018-08-19T19:08:08.163Z,96939.31
2018-08-19T19:10:37.762Z,96941.34
2018-08-19T19:13:06.943Z,96946.78
2018-08-19T19:15:39.919Z,96950.33
2018-08-19T19:18:11.527Z,96947.98
2018-08-19T19:20:49.661Z,96951.69
2018-08-19T19:23:19.045Z,96952.50
2018-08-19T19:25:48.245Z,96953.52
2018-08-19T19:28:16.990Z,96958.58
2018-08-19T19:30:45.800Z,96964.97
2018-08-19T19:33:14.579Z,96965.06
2018-08-19T19:35:43.448Z,96965.03
2018-08-19T19:38:12.226Z,96965.62
2018-08-19T19:40:41.038Z,96970.06
2018-08-19T19:43:09.805Z,96981.06
2018-08-19T19:45:43.827Z,96974.13
2018-08-19T19:48:12.714Z,96977.03
2018-08-19T19:50:41.658Z,96978.36
2018-08-19T19:53:10.468Z,96977.62
2018-08-19T19:55:39.329Z,96980.45
2018-08-19T19:58:08.185Z,96977.87
2018-08-19T20:00:51.081Z,96979.87
2018-08-19T20:03:20.614Z,96977.35
2018-08-19T20:05:49.520Z,96979.80
2018-08-19T20:08:22.526Z,96987.34
2018-08-19T20:10:51.341Z,96986.38
2018-08-19T20:13:20.146Z,96982.77
2018-08-19T20:15:49.766Z,96987.59
2018-08-19T20:18:19.957Z,96985.52
2018-08-19T20:20:48.823Z,96984.12
2018-08-19T20:23:23.884Z,96985.97
2018-08-19T20:25:53.596Z,96987.48
2018-08-19T20:28:22.594Z,96992.64
2018-08-19T20:30:51.565Z,96991.22
2018-08-19T20:33:25.552Z,96986.62
2018-08-19T20:35:55.272Z,96988.14
2018-08-19T20:38:24.652Z,96982.91
2018-08-19T20:40:54.107Z,96989.80
2018-08-19T20:43:24.202Z,96990.36
2018-08-19T20:45:53.080Z,96990.77
2018-08-19T20:48:22.702Z,96992.63
2018-08-19T20:50:51.769Z,97004.23
2018-08-19T20:53:20.801Z,97001.47
2018-08-19T20:55:49.639Z,96995.98
2018-08-19T20:58:20.322Z,96997.73
2018-08-19T21:00:49.342Z,96999.02
2018-08-19T21:03:18.282Z,96996.06
2018-08-19T21:05:47.179Z,96995.28
2018-08-19T21:08:17.483Z,96999.66
2018-08-19T21:10:47.379Z,96997.78
2018-08-19T21:13:19.295Z,96996.48
2018-08-19T21:15:49.860Z,96996.04
2018-08-19T21:18:18.791Z,97002.28
2018-08-19T21:20:47.934Z,96999.44
2018-08-19T21:23:17.486Z,96999.53
2018-08-19T21:25:51.968Z,97001.16
2018-08-19T21:28:21.328Z,97007.30
2018-08-19T21:30:50.277Z,97003.78
2018-08-19T21:33:19.297Z,96998.87
2018-08-19T21:35:50.108Z,96999.73
2018-08-19T21:38:19.464Z,97011.65
2018-08-19T21:40:48.269Z,96999.28
2018-08-19T21:43:17.153Z,97003.84
2018-08-19T21:45:46.012Z,97005.68
2018-08-19T21:48:16.252Z,97010.27
2018-08-19T21:50:45.292Z,97011.23
2018-08-19T21:53:16.364Z,97003.42
2018-08-19T21:55:46.418Z,97008.83
2018-08-19T21:58:15.231Z,97007.35
2018-08-19T22:00:50.700Z,97009.00
2018-08-19T22:03:24.927Z,97010.38
2018-08-19T22:05:53.939Z,97006.85
2018-08-19T22:08:24.676Z,97010.20
2018-08-19T22:10:53.473Z,97004.52
2018-08-19T22:13:22.351Z,97007.45
2018-08-19T22:15:51.139Z,97008.31
2018-08-19T22:18:23.154Z,97008.83
2018-08-19T22:21:07.443Z,97007.24
2018-08-19T22:23:41.528Z,97006.80
2018-08-19T22:26:11.264Z,97009.62
2018-08-19T22:28:40.384Z,97010.88
2018-08-19T22:31:20.884Z,97011.56
2018-08-19T22:33:57.403Z,97013.06
2018-08-19T22:36:26.416Z,97011.39
2018-08-19T22:38:56.002Z,97015.77
2018-08-19T22:41:26.239Z,97005.36
2018-08-19T22:43:55.831Z,97011.62
2018-08-19T22:46:25.099Z,97010.61
2018-08-19T22:48:54.848Z,97019.55
2018-08-19T22:51:23.605Z,97014.95
2018-08-19T22:53:54.896Z,97007.83
2018-08-19T22:56:23.984Z,97003.59
2018-08-19T22:58:52.824Z,97008.05
2018-08-19T23:01:21.868Z,97007.83
2018-08-19T23:03:59.543Z,97009.36
2018-08-19T23:06:29.096Z,97004.77
2018-08-19T23:08:57.892Z,97001.14
2018-08-19T23:11:33.257Z,97007.16
2018-08-19T23:14:13.033Z,97005.63
2018-08-19T23:16:41.884Z,97001.78
2018-08-19T23:19:10.661Z,97003.62
2018-08-19T23:21:39.397Z,97007.09
2018-08-19T23:24:08.741Z,97006.56
2018-08-19T23:26:37.488Z,97007.88
2018-08-19T23:29:06.282Z,97006.45
2018-08-19T23:31:35.021Z,96993.07
2018-08-19T23:34:04.148Z,96994.30
2018-08-19T23:36:32.928Z,96994.52
2018-08-19T23:39:01.705Z,96997.66
2018-08-19T23:41:30.459Z,96989.95
2018-08-19T23:43:59.329Z,96994.52
2018-08-19T23:46:28.076Z,96994.38
2018-08-19T23:48:56.883Z,96996.55
2018-08-19T23:51:30.285Z,96998.49
2018-08-19T23:54:00.507Z,96992.26
2018-08-19T23:56:29.705Z,97000.30
2018-08-19T23:58:59.008Z,96995.75
